AMV105 LZIB-LKKV
Flight info
| Callsign | AMV105 |
|---|---|
| Flight time | 0h 45m |
| Altitude | 30000 |
| Route | BERVA DCT MAVOR DCT GOPSI |
| Aircraft | B38M/M-SDE1FGHILORVWXY/HB1 |
Departure
| Time | 2026-04-30 18:36 |
|---|---|
| Airport | M. R. Štefánik Airport (LZIB) |
Arrival
| Time | 2026-04-30 19:21 |
|---|---|
| Airport | Karlovy Vary Airport (LKKV) |
| Time | Latitude | Longitude | Altitude | Speed | Heading |
|---|---|---|---|---|---|
| 2026-04-30 18:19 | 48.16885 | 17.20050 | 443 ft | 0 kts | 314° |
| 2026-04-30 18:27 | 48.16867 | 17.20078 | 433 ft | 4 kts | 313° |
| 2026-04-30 18:27 | 48.16853 | 17.20108 | 429 ft | 4 kts | 274° |
| 2026-04-30 18:28 | 48.16855 | 17.20122 | 430 ft | 1 kts | 224° |
| 2026-04-30 18:31 | 48.16851 | 17.20121 | 427 ft | 1 kts | 183° |
| 2026-04-30 18:32 | 48.16831 | 17.20187 | 439 ft | 9 kts | 124° |
| 2026-04-30 18:32 | 48.16778 | 17.20265 | 438 ft | 13 kts | 138° |
| 2026-04-30 18:32 | 48.16597 | 17.20234 | 424 ft | 19 kts | 219° |
| 2026-04-30 18:33 | 48.16488 | 17.20101 | 425 ft | 21 kts | 220° |
| 2026-04-30 18:33 | 48.16266 | 17.19811 | 426 ft | 18 kts | 213° |
| 2026-04-30 18:33 | 48.16174 | 17.19818 | 438 ft | 12 kts | 141° |
| 2026-04-30 18:34 | 48.16109 | 17.19916 | 435 ft | 13 kts | 133° |
| 2026-04-30 18:34 | 48.16121 | 17.20006 | 426 ft | 0 kts | 44° |
| 2026-04-30 18:35 | 48.16168 | 17.20074 | 432 ft | 38 kts | 44° |
| 2026-04-30 18:35 | 48.16563 | 17.20633 | 437 ft | 114 kts | 43° |
| 2026-04-30 18:35 | 48.17266 | 17.21674 | 586 ft | 159 kts | 44° |
| 2026-04-30 18:36 | 48.19040 | 17.23957 | 1946 ft | 189 kts | 35° |
| 2026-04-30 18:36 | 48.20044 | 17.25321 | 2733 ft | 198 kts | 40° |
| 2026-04-30 18:36 | 48.22195 | 17.28469 | 4048 ft | 231 kts | 37° |
| 2026-04-30 18:37 | 48.23537 | 17.29944 | 4665 ft | 247 kts | 34° |
| 2026-04-30 18:37 | 48.24929 | 17.31431 | 4963 ft | 250 kts | 34° |
| 2026-04-30 18:37 | 48.26358 | 17.32949 | 5303 ft | 253 kts | 34° |
| 2026-04-30 18:37 | 48.27795 | 17.34471 | 6319 ft | 252 kts | 34° |
| 2026-04-30 18:38 | 48.29237 | 17.35995 | 7232 ft | 256 kts | 34° |
| 2026-04-30 18:38 | 48.30763 | 17.37415 | 8116 ft | 259 kts | 30° |
| 2026-04-30 18:38 | 48.32323 | 17.38799 | 8997 ft | 262 kts | 31° |
| 2026-04-30 18:38 | 48.33898 | 17.40209 | 9882 ft | 266 kts | 31° |
| 2026-04-30 18:39 | 48.35508 | 17.41657 | 10559 ft | 277 kts | 31° |
| 2026-04-30 18:39 | 48.37214 | 17.43195 | 10920 ft | 297 kts | 31° |
| 2026-04-30 18:39 | 48.39041 | 17.44847 | 11309 ft | 314 kts | 31° |
| 2026-04-30 18:39 | 48.40948 | 17.46574 | 11927 ft | 322 kts | 31° |
| 2026-04-30 18:40 | 48.42868 | 17.48315 | 12861 ft | 323 kts | 31° |
| 2026-04-30 18:40 | 48.44186 | 17.49384 | 13393 ft | 326 kts | 22° |
| 2026-04-30 18:40 | 48.46398 | 17.50149 | 14274 ft | 329 kts | 12° |
| 2026-04-30 18:40 | 48.49422 | 17.50961 | 15258 ft | 335 kts | 12° |
| 2026-04-30 18:41 | 48.51720 | 17.51560 | 16071 ft | 338 kts | 12° |
| 2026-04-30 18:41 | 48.54054 | 17.52160 | 16849 ft | 341 kts | 12° |
| 2026-04-30 18:41 | 48.56404 | 17.52758 | 17603 ft | 345 kts | 12° |
| 2026-04-30 18:41 | 48.58788 | 17.53363 | 18383 ft | 348 kts | 12° |
| 2026-04-30 18:42 | 48.60377 | 17.53766 | 18847 ft | 351 kts | 12° |
| 2026-04-30 18:42 | 48.65294 | 17.54044 | 20159 ft | 358 kts | 2° |
| 2026-04-30 18:42 | 48.67794 | 17.54005 | 20771 ft | 361 kts | 2° |
| 2026-04-30 18:45 | 48.89886 | 17.37328 | 26290 ft | 422 kts | 313° |
| 2026-04-30 18:45 | 48.91598 | 17.33689 | 26734 ft | 425 kts | 313° |
| 2026-04-30 18:45 | 48.93319 | 17.30024 | 27162 ft | 428 kts | 313° |
| 2026-04-30 18:46 | 48.95057 | 17.26316 | 27599 ft | 431 kts | 313° |
| 2026-04-30 18:46 | 48.96807 | 17.22578 | 28023 ft | 434 kts | 313° |
| 2026-04-30 18:46 | 48.98565 | 17.18817 | 28435 ft | 438 kts | 313° |
| 2026-04-30 18:46 | 49.00318 | 17.15062 | 28833 ft | 441 kts | 314° |
| 2026-04-30 18:47 | 49.02100 | 17.11240 | 29245 ft | 443 kts | 314° |
| 2026-04-30 18:47 | 49.03890 | 17.07394 | 29637 ft | 446 kts | 314° |
| 2026-04-30 18:47 | 49.05669 | 17.03567 | 30009 ft | 450 kts | 314° |
| 2026-04-30 18:47 | 49.07481 | 16.99663 | 30354 ft | 453 kts | 314° |
| 2026-04-30 18:48 | 49.09311 | 16.95716 | 30378 ft | 461 kts | 314° |
| 2026-04-30 18:48 | 49.13032 | 16.87666 | 30376 ft | 464 kts | 314° |
| 2026-04-30 18:49 | 49.16740 | 16.79623 | 30378 ft | 464 kts | 314° |
| 2026-04-30 18:49 | 49.20452 | 16.71545 | 30352 ft | 464 kts | 315° |
| 2026-04-30 18:50 | 49.24138 | 16.63503 | 30374 ft | 465 kts | 315° |
| 2026-04-30 18:50 | 49.27853 | 16.55373 | 30387 ft | 467 kts | 315° |
| 2026-04-30 18:51 | 49.31563 | 16.47228 | 30377 ft | 467 kts | 315° |
| 2026-04-30 18:51 | 49.35271 | 16.39060 | 30392 ft | 467 kts | 315° |
| 2026-04-30 18:52 | 49.38954 | 16.30926 | 30375 ft | 467 kts | 315° |
| 2026-04-30 18:52 | 49.42655 | 16.22725 | 30366 ft | 468 kts | 315° |
| 2026-04-30 18:53 | 49.46352 | 16.14509 | 30390 ft | 468 kts | 315° |
| 2026-04-30 18:53 | 49.50052 | 16.06262 | 30404 ft | 468 kts | 315° |
| 2026-04-30 18:54 | 49.53744 | 15.98005 | 30385 ft | 468 kts | 315° |
| 2026-04-30 18:54 | 49.57402 | 15.89800 | 30394 ft | 469 kts | 315° |
| 2026-04-30 18:55 | 49.61095 | 15.81491 | 30397 ft | 470 kts | 315° |
| 2026-04-30 18:55 | 49.66622 | 15.69003 | 30397 ft | 470 kts | 315° |
| 2026-04-30 18:56 | 49.72134 | 15.56495 | 30401 ft | 470 kts | 315° |
| 2026-04-30 18:57 | 49.77625 | 15.43973 | 30417 ft | 472 kts | 314° |
| 2026-04-30 18:57 | 49.81303 | 15.35552 | 30407 ft | 472 kts | 314° |
| 2026-04-30 18:58 | 49.86798 | 15.22922 | 30409 ft | 472 kts | 314° |
| 2026-04-30 18:59 | 49.92278 | 15.10265 | 30395 ft | 471 kts | 314° |
| 2026-04-30 19:00 | 49.99530 | 14.93425 | 30416 ft | 471 kts | 313° |
| 2026-04-30 19:01 | 50.06789 | 14.76458 | 30370 ft | 471 kts | 313° |
| 2026-04-30 19:02 | 50.12216 | 14.63710 | 27858 ft | 486 kts | 311° |
| 2026-04-30 19:02 | 50.15886 | 14.55036 | 26037 ft | 473 kts | 311° |
| 2026-04-30 19:03 | 50.19447 | 14.46603 | 24738 ft | 457 kts | 310° |
| 2026-04-30 19:03 | 50.22852 | 14.38514 | 23283 ft | 435 kts | 310° |
| 2026-04-30 19:04 | 50.26072 | 14.30844 | 21977 ft | 414 kts | 310° |
| 2026-04-30 19:04 | 50.29185 | 14.23410 | 20676 ft | 414 kts | 309° |
| 2026-04-30 19:05 | 50.32344 | 14.15838 | 19347 ft | 416 kts | 309° |
| 2026-04-30 19:05 | 50.35420 | 14.08446 | 17983 ft | 393 kts | 308° |
| 2026-04-30 19:06 | 50.38312 | 14.01478 | 16756 ft | 371 kts | 308° |
| 2026-04-30 19:06 | 50.39704 | 13.98123 | 16171 ft | 362 kts | 308° |
| 2026-04-30 19:06 | 50.42401 | 13.91606 | 15088 ft | 359 kts | 307° |
| 2026-04-30 19:07 | 50.45103 | 13.85059 | 13961 ft | 356 kts | 307° |
| 2026-04-30 19:07 | 50.46446 | 13.81801 | 13339 ft | 354 kts | 307° |
| 2026-04-30 19:08 | 50.49048 | 13.75474 | 12449 ft | 335 kts | 306° |
| 2026-04-30 19:08 | 50.51489 | 13.69527 | 11908 ft | 308 kts | 307° |
| 2026-04-30 19:08 | 50.52615 | 13.66778 | 11783 ft | 290 kts | 307° |
| 2026-04-30 19:09 | 50.54352 | 13.61420 | 11486 ft | 277 kts | 279° |
| 2026-04-30 19:09 | 50.54164 | 13.58448 | 11362 ft | 280 kts | 253° |
| 2026-04-30 19:09 | 50.53283 | 13.55737 | 11240 ft | 279 kts | 230° |
| 2026-04-30 19:10 | 50.50164 | 13.52287 | 11021 ft | 276 kts | 205° |
| 2026-04-30 19:10 | 50.46750 | 13.49547 | 10707 ft | 275 kts | 204° |
| 2026-04-30 19:11 | 50.45033 | 13.48221 | 10438 ft | 276 kts | 203° |
| 2026-04-30 19:11 | 50.41593 | 13.45608 | 9790 ft | 276 kts | 203° |
| 2026-04-30 19:11 | 50.39870 | 13.44311 | 9448 ft | 273 kts | 203° |
| 2026-04-30 19:12 | 50.38166 | 13.43033 | 9137 ft | 269 kts | 203° |
| 2026-04-30 19:12 | 50.36484 | 13.41774 | 8897 ft | 266 kts | 202° |
| 2026-04-30 19:12 | 50.34822 | 13.40530 | 8657 ft | 264 kts | 202° |
| 2026-04-30 19:13 | 50.31517 | 13.38063 | 8200 ft | 263 kts | 202° |
| 2026-04-30 19:13 | 50.28283 | 13.35653 | 7766 ft | 260 kts | 202° |
| 2026-04-30 19:13 | 50.26655 | 13.34441 | 7545 ft | 259 kts | 202° |
| 2026-04-30 19:14 | 50.25029 | 13.33232 | 7303 ft | 258 kts | 202° |
| 2026-04-30 19:14 | 50.23428 | 13.32042 | 7043 ft | 258 kts | 202° |
| 2026-04-30 19:14 | 50.21804 | 13.30836 | 6752 ft | 258 kts | 202° |
| 2026-04-30 19:14 | 50.20190 | 13.29638 | 6454 ft | 257 kts | 202° |
| 2026-04-30 19:15 | 50.18580 | 13.28441 | 6205 ft | 254 kts | 203° |
| 2026-04-30 19:15 | 50.15436 | 13.26112 | 5869 ft | 244 kts | 203° |
| 2026-04-30 19:15 | 50.13970 | 13.24874 | 5712 ft | 238 kts | 218° |
| 2026-04-30 19:16 | 50.12985 | 13.22873 | 5591 ft | 229 kts | 249° |
| 2026-04-30 19:16 | 50.12780 | 13.20372 | 5481 ft | 210 kts | 279° |
| 2026-04-30 19:16 | 50.13526 | 13.16401 | 5141 ft | 189 kts | 294° |
| 2026-04-30 19:17 | 50.14008 | 13.14552 | 4940 ft | 186 kts | 295° |
| 2026-04-30 19:17 | 50.14989 | 13.10933 | 4501 ft | 175 kts | 296° |
| 2026-04-30 19:17 | 50.15461 | 13.09203 | 4286 ft | 172 kts | 296° |
| 2026-04-30 19:18 | 50.16220 | 13.06426 | 3911 ft | 163 kts | 296° |
| 2026-04-30 19:18 | 50.16814 | 13.04259 | 3618 ft | 162 kts | 296° |
| 2026-04-30 19:18 | 50.17245 | 13.02683 | 3415 ft | 161 kts | 296° |
| 2026-04-30 19:19 | 50.17697 | 13.01035 | 3179 ft | 162 kts | 296° |
| 2026-04-30 19:19 | 50.18140 | 12.99417 | 2959 ft | 162 kts | 296° |
| 2026-04-30 19:19 | 50.19037 | 12.96185 | 2467 ft | 162 kts | 297° |
| 2026-04-30 19:20 | 50.19456 | 12.94598 | 2245 ft | 159 kts | 296° |
| 2026-04-30 19:20 | 50.19907 | 12.92983 | 2061 ft | 164 kts | 292° |
| 2026-04-30 19:20 | 50.20544 | 12.90655 | 1992 ft | 57 kts | 294° |
| 2026-04-30 19:21 | 50.20585 | 12.90368 | 1992 ft | 17 kts | 244° |
| 2026-04-30 19:21 | 50.20547 | 12.90337 | 1993 ft | 0 kts | 162° |
| 2026-04-30 19:22 | 50.20537 | 12.90346 | 1992 ft | 5 kts | 142° |
| 2026-04-30 19:23 | 50.20454 | 12.90623 | 1993 ft | 13 kts | 115° |
| 2026-04-30 19:24 | 50.20376 | 12.90907 | 1993 ft | 14 kts | 114° |
| 2026-04-30 19:24 | 50.20373 | 12.90915 | 1994 ft | 0 kts | 114° |
| 2026-04-30 19:24 | 50.20358 | 12.90969 | 1994 ft | 5 kts | 114° |
| 2026-04-30 19:25 | 50.20283 | 12.91189 | 1994 ft | 6 kts | 162° |
| 2026-04-30 19:26 | 50.20255 | 12.91137 | 1994 ft | 5 kts | 267° |
| 2026-04-30 19:26 | 50.20209 | 12.91075 | 1993 ft | 3 kts | 203° |
| 2026-04-30 19:26 | 50.20208 | 12.91074 | 1993 ft | 0 kts | 203° |